• Join FlightAware (Why Join?)
  • Login
  • US Flag 
Rudolph Flight #1: Arrived! 
02:13AM EST


 

Airport Tracker/Info


-or-


 

Live Flight TrackerFlight Track Log ✈ AMF1324 ✈ 19-Mar-2014 ✈ KBGM - KBUF

Flight Track Log - Related Links

Times and Time Zones

All times are in EDT time to prevent confusion due to time zone crossing. See the AMF1324 flight status page for this flight to view local times or setup timezone preferences in your user account.

Time Position Orientation Groundspeed Altitude Reporting Facility
EDT Latitude Longitude Course Direction KTS MPH feet Rate Location/Type
08:08AM 42.1731 -75.9864 294° West 162 186 5,200  Level New York Center
08:09AM 42.1683 -76.0478 264° West 149 171 7,900 1,620 Climbing New York Center
08:10AM 42.1592 -76.1142 259° West 173 199 8,500 1,080 Climbing New York Center
08:11AM 42.1725 -76.1881 284° West 188 216 10,100 1,740 Climbing New York Center
08:12AM 42.2028 -76.2519 303° West 198 228 12,000 960 Climbing New York Center
08:13AM 42.2367 -76.3333 299° West 219 252 12,100  Climbing New York Center
08:14AM 42.1881 -76.2142 294° West  Level FlightAware Approximate
08:14AM 42.2719 -76.4156 300° West 246 283 12,100  Level Cleveland Center
08:15AM 42.3067 -76.4978 300° West 252 290 12,100 -60 Level Cleveland Center
08:16AM 42.3419 -76.5808 300° West 253 291 12,000  Descending Cleveland Center
08:17AM 42.3789 -76.6639 301° West 255 293 12,100  Climbing Cleveland Center
08:18AM 42.4111 -76.7486 297° West 258 297 12,000  Descending Cleveland Center
08:19AM 42.4439 -76.8333 298° West 256 295 12,200 60 Climbing Cleveland Center
08:20AM 42.4883 -76.9333 301° West 257 296 12,200  Level Cleveland Center
08:21AM 42.5269 -77.0147 303° West 257 296 12,200 -120 Level Cleveland Center
08:23AM 42.5614 -77.1003 299° West 257 296 12,000 -120 Descending Cleveland Center
08:24AM 42.5972 -77.1847 300° West 258 297 12,000  Level Cleveland Center
08:25AM 42.6361 -77.2669 303° West 259 298 12,000  Level Cleveland Center
08:26AM 42.6736 -77.3517 301° West 262 302 12,000  Level Cleveland Center
08:27AM 42.7189 -77.4439 304° West 266 306 12,000  Level Cleveland Center
08:27AM 42.7225 -77.4503 308° West 263 303 12,000 -240 Level Cleveland Center
08:27AM 42.7333 -77.4767 299° West 268 308 11,900 -660 Descending Cleveland Center
08:28AM 42.7714 -77.5672 300° West 280 322 11,200 -540 Descending Cleveland Center
08:29AM 42.7969 -77.6303 299° West 277 319 11,000 -360 Descending Cleveland Center
08:29AM 42.8083 -77.6517 306° West 279 321 10,900 -780 Descending Cleveland Center
08:30AM 42.8353 -77.7214 298° West 278 320 10,200 -1,140 Descending Cleveland Center
08:30AM 42.8433 -77.7475 293° West 278 320 9,800 -1,080 Descending Cleveland Center
08:31AM 42.8464 -77.8414 273° West 272 313 9,100 -900 Descending Cleveland Center
08:32AM 42.8531 -77.9408 275° West 257 296 8,100 -900 Descending Cleveland Center
08:33AM 42.8608 -78.0294 277° West 248 285 7,300 -1,020 Descending Cleveland Center
08:34AM 42.8706 -78.1233 278° West 243 280 6,100 -1,080 Descending Cleveland Center
08:35AM 42.8814 -78.2158 279° West 238 274 5,100 -480 Descending Cleveland Center
08:36AM 42.8914 -78.2958 280° West 209 241 5,100 -300 Level Cleveland Center
08:37AM 42.9000 -78.3783 278° West 208 239 4,600 -540 Descending Cleveland Center
08:38AM 42.9400 -78.4450 309° West 214 246 4,100 -360 Descending Cleveland Center
08:39AM 42.9589 -78.5117 291° West 200 230 3,900 -720 Descending Cleveland Center
08:40AM 42.9847 -78.5797 297° West 196 226 2,700 -720 Descending Cleveland Center
08:41AM 43.0075 -78.6489 294° West 194 223 2,500 -480 Descending Cleveland Center
08:42AM 42.9833 -78.6667 208° Southwest 106 122 2,000 -720 Descending Buffalo TRACON
08:43AM 42.9667 -78.6833 216° Southwest 99 114 1,500 -600 Descending Buffalo TRACON
08:45AM 42.9333 -78.7167 270° West  Level FlightAware Approximate
08:52AM 42.9404 -78.7306 270° West  Level Estimated